sensor_id;sensor_type;location;lat;lon;timestamp;pressure;altitude;pressure_sealevel;temperature;humidity
38852;BME280;24605;50.092;9.182;2023-03-23T00:01:22;97158.06;;;12.74;65.28
38852;BME280;24605;50.092;9.182;2023-03-23T00:03:52;97165.34;;;12.72;65.84
38852;BME280;24605;50.092;9.182;2023-03-23T00:06:22;97168.78;;;12.79;65.84
38852;BME280;24605;50.092;9.182;2023-03-23T00:08:51;97145.72;;;12.61;66.11
38852;BME280;24605;50.092;9.182;2023-03-23T00:11:24;97152.00;;;12.73;66.57
38852;BME280;24605;50.092;9.182;2023-03-23T00:13:52;97148.94;;;12.76;66.42
38852;BME280;24605;50.092;9.182;2023-03-23T00:16:20;97142.47;;;12.79;66.24
38852;BME280;24605;50.092;9.182;2023-03-23T00:18:54;97143.69;;;12.63;66.97
38852;BME280;24605;50.092;9.182;2023-03-23T00:21:24;97145.72;;;12.67;67.00
38852;BME280;24605;50.092;9.182;2023-03-23T00:23:59;97146.13;;;12.71;66.92
38852;BME280;24605;50.092;9.182;2023-03-23T00:26:27;97138.44;;;12.63;67.67
38852;BME280;24605;50.092;9.182;2023-03-23T00:28:55;97139.47;;;12.68;67.22
38852;BME280;24605;50.092;9.182;2023-03-23T00:31:21;97091.50;;;12.40;67.36
38852;BME280;24605;50.092;9.182;2023-03-23T00:33:48;97137.63;;;12.62;67.80
38852;BME280;24605;50.092;9.182;2023-03-23T00:36:14;97140.03;;;12.70;67.58
38852;BME280;24605;50.092;9.182;2023-03-23T00:38:43;97130.13;;;12.66;67.33
38852;BME280;24605;50.092;9.182;2023-03-23T00:41:09;97122.25;;;12.73;67.49
38852;BME280;24605;50.092;9.182;2023-03-23T00:43:37;97084.44;;;12.53;67.13
38852;BME280;24605;50.092;9.182;2023-03-23T00:46:04;97113.34;;;12.74;66.89
38852;BME280;24605;50.092;9.182;2023-03-23T00:48:35;97119.00;;;12.77;66.54
38852;BME280;24605;50.092;9.182;2023-03-23T00:51:02;97121.63;;;12.84;65.94
38852;BME280;24605;50.092;9.182;2023-03-23T00:53:31;97113.53;;;12.92;65.53
38852;BME280;24605;50.092;9.182;2023-03-23T00:55:58;97085.81;;;12.76;65.40
38852;BME280;24605;50.092;9.182;2023-03-23T00:58:25;97108.06;;;12.94;65.59
38852;BME280;24605;50.092;9.182;2023-03-23T01:00:52;97107.06;;;12.95;65.28
38852;BME280;24605;50.092;9.182;2023-03-23T01:03:19;97111.13;;;12.91;65.05
38852;BME280;24605;50.092;9.182;2023-03-23T01:05:46;97108.66;;;12.89;65.37
38852;BME280;24605;50.092;9.182;2023-03-23T01:08:13;97107.88;;;12.95;65.06
38852;BME280;24605;50.092;9.182;2023-03-23T01:10:41;97100.16;;;12.87;66.23
38852;BME280;24605;50.092;9.182;2023-03-23T01:13:07;97096.31;;;12.96;65.13
38852;BME280;24605;50.092;9.182;2023-03-23T01:15:34;97089.47;;;12.95;65.22
38852;BME280;24605;50.092;9.182;2023-03-23T01:18:03;97088.44;;;12.90;65.54
38852;BME280;24605;50.092;9.182;2023-03-23T01:20:30;97084.59;;;12.92;66.26
38852;BME280;24605;50.092;9.182;2023-03-23T01:22:57;97080.34;;;12.91;65.72
38852;BME280;24605;50.092;9.182;2023-03-23T01:25:26;97075.69;;;12.93;65.97
38852;BME280;24605;50.092;9.182;2023-03-23T01:27:52;97075.69;;;12.87;66.43
38852;BME280;24605;50.092;9.182;2023-03-23T01:30:19;97084.19;;;12.89;66.69
38852;BME280;24605;50.092;9.182;2023-03-23T01:32:45;97080.34;;;12.91;66.71
38852;BME280;24605;50.092;9.182;2023-03-23T01:35:13;97071.22;;;12.94;67.00
38852;BME280;24605;50.092;9.182;2023-03-23T01:37:40;97078.34;;;12.87;66.70
38852;BME280;24605;50.092;9.182;2023-03-23T01:40:08;97069.66;;;12.73;67.18
38852;BME280;24605;50.092;9.182;2023-03-23T01:42:36;97070.03;;;12.83;66.67
38852;BME280;24605;50.092;9.182;2023-03-23T01:45:25;97066.41;;;12.84;66.73
38852;BME280;24605;50.092;9.182;2023-03-23T01:47:57;97063.56;;;12.85;67.52
38852;BME280;24605;50.092;9.182;2023-03-23T01:50:30;97065.19;;;12.80;67.08
38852;BME280;24605;50.092;9.182;2023-03-23T01:53:05;97065.56;;;12.83;66.29
38852;BME280;24605;50.092;9.182;2023-03-23T01:55:36;97070.22;;;12.88;66.49
38852;BME280;24605;50.092;9.182;2023-03-23T01:58:05;97079.78;;;12.82;66.06
38852;BME280;24605;50.092;9.182;2023-03-23T02:00:33;97073.28;;;12.85;65.32
38852;BME280;24605;50.092;9.182;2023-03-23T02:03:00;97078.53;;;12.85;65.59
38852;BME280;24605;50.092;9.182;2023-03-23T02:05:31;97071.44;;;12.92;64.21
38852;BME280;24605;50.092;9.182;2023-03-23T02:08:02;97069.22;;;12.96;64.26
38852;BME280;24605;50.092;9.182;2023-03-23T02:10:32;97022.31;;;12.73;64.32
38852;BME280;24605;50.092;9.182;2023-03-23T02:13:02;97066.56;;;13.03;63.81
38852;BME280;24605;50.092;9.182;2023-03-23T02:15:35;97058.84;;;13.01;63.58
38852;BME280;24605;50.092;9.182;2023-03-23T02:18:07;97057.06;;;13.01;63.46
38852;BME280;24605;50.092;9.182;2023-03-23T02:21:06;97059.06;;;12.99;63.56
38852;BME280;24605;50.092;9.182;2023-03-23T02:24:11;97057.47;;;12.98;63.56
38852;BME280;24605;50.092;9.182;2023-03-23T02:26:51;97064.72;;;13.03;63.43
38852;BME280;24605;50.092;9.182;2023-03-23T02:29:46;97053.19;;;13.04;63.38
38852;BME280;24605;50.092;9.182;2023-03-23T02:35:08;97085.16;;;13.01;64.50
38852;BME280;24605;50.092;9.182;2023-03-23T02:37:40;97063.94;;;12.89;65.45
38852;BME280;24605;50.092;9.182;2023-03-23T02:40:14;97066.97;;;12.93;64.78
38852;BME280;24605;50.092;9.182;2023-03-23T02:42:47;97067.19;;;12.98;64.90
38852;BME280;24605;50.092;9.182;2023-03-23T02:45:16;97059.09;;;12.93;65.02
38852;BME280;24605;50.092;9.182;2023-03-23T02:47:44;97044.91;;;12.94;64.72
38852;BME280;24605;50.092;9.182;2023-03-23T02:50:15;97042.72;;;12.91;64.38
38852;BME280;24605;50.092;9.182;2023-03-23T02:52:44;97049.56;;;12.98;64.85
38852;BME280;24605;50.092;9.182;2023-03-23T02:55:11;97043.31;;;12.93;65.05
38852;BME280;24605;50.092;9.182;2023-03-23T02:57:38;97035.41;;;12.93;64.94
38852;BME280;24605;50.092;9.182;2023-03-23T03:00:07;97049.78;;;12.97;64.79
38852;BME280;24605;50.092;9.182;2023-03-23T03:02:36;97033.78;;;12.98;64.73
38852;BME280;24605;50.092;9.182;2023-03-23T03:05:10;97036.22;;;12.93;65.52
38852;BME280;24605;50.092;9.182;2023-03-23T03:07:53;97009.94;;;12.93;65.29
38852;BME280;24605;50.092;9.182;2023-03-23T03:10:25;97031.78;;;12.87;65.37
38852;BME280;24605;50.092;9.182;2023-03-23T03:12:57;97046.75;;;12.93;66.12
38852;BME280;24605;50.092;9.182;2023-03-23T03:15:31;97030.75;;;12.88;66.57
38852;BME280;24605;50.092;9.182;2023-03-23T03:18:04;97040.09;;;12.84;66.90
38852;BME280;24605;50.092;9.182;2023-03-23T03:20:35;97042.53;;;12.79;69.18
38852;BME280;24605;50.092;9.182;2023-03-23T03:23:05;97043.56;;;12.64;73.47
38852;BME280;24605;50.092;9.182;2023-03-23T03:25:35;97041.78;;;12.38;77.55
38852;BME280;24605;50.092;9.182;2023-03-23T03:28:02;97041.75;;;12.18;78.89
38852;BME280;24605;50.092;9.182;2023-03-23T03:30:32;97037.50;;;12.17;79.46
38852;BME280;24605;50.092;9.182;2023-03-23T03:33:01;97039.34;;;12.10;81.87
38852;BME280;24605;50.092;9.182;2023-03-23T03:35:30;97044.59;;;12.10;82.93
38852;BME280;24605;50.092;9.182;2023-03-23T03:37:57;97029.41;;;11.91;86.42
38852;BME280;24605;50.092;9.182;2023-03-23T03:40:26;97025.34;;;11.89;88.46
38852;BME280;24605;50.092;9.182;2023-03-23T03:42:53;97036.63;;;11.83;88.69
38852;BME280;24605;50.092;9.182;2023-03-23T03:45:19;97034.22;;;11.81;89.18
38852;BME280;24605;50.092;9.182;2023-03-23T03:47:47;97046.13;;;11.84;88.95
38852;BME280;24605;50.092;9.182;2023-03-23T03:50:13;97041.13;;;11.89;88.18
38852;BME280;24605;50.092;9.182;2023-03-23T03:52:40;97040.72;;;11.85;86.88
38852;BME280;24605;50.092;9.182;2023-03-23T03:55:07;97044.13;;;11.86;87.54
38852;BME280;24605;50.092;9.182;2023-03-23T03:57:36;97034.41;;;11.86;90.32
38852;BME280;24605;50.092;9.182;2023-03-23T04:00:03;97030.78;;;11.87;88.77
38852;BME280;24605;50.092;9.182;2023-03-23T04:02:38;97032.41;;;11.75;92.67
38852;BME280;24605;50.092;9.182;2023-03-23T04:05:06;97038.44;;;11.62;92.64
38852;BME280;24605;50.092;9.182;2023-03-23T04:07:34;97033.56;;;11.59;95.12
38852;BME280;24605;50.092;9.182;2023-03-23T04:10:02;97028.09;;;11.60;94.92
38852;BME280;24605;50.092;9.182;2023-03-23T04:12:29;97028.69;;;11.56;96.10
38852;BME280;24605;50.092;9.182;2023-03-23T04:14:57;97030.75;;;11.54;98.87
38852;BME280;24605;50.092;9.182;2023-03-23T04:17:23;97035.78;;;11.55;99.76
38852;BME280;24605;50.092;9.182;2023-03-23T04:19:51;97035.38;;;11.52;100.00
38852;BME280;24605;50.092;9.182;2023-03-23T04:22:17;97037.38;;;11.50;100.00
38852;BME280;24605;50.092;9.182;2023-03-23T04:24:44;97040.38;;;11.40;100.00
38852;BME280;24605;50.092;9.182;2023-03-23T04:27:10;97030.25;;;11.30;100.00
38852;BME280;24605;50.092;9.182;2023-03-23T04:29:38;97037.28;;;11.23;100.00
38852;BME280;24605;50.092;9.182;2023-03-23T04:32:06;97039.94;;;11.29;100.00
38852;BME280;24605;50.092;9.182;2023-03-23T04:34:32;97023.94;;;11.18;100.00
38852;BME280;24605;50.092;9.182;2023-03-23T04:37:00;97030.19;;;11.17;100.00
38852;BME280;24605;50.092;9.182;2023-03-23T04:39:26;97035.03;;;11.20;100.00
38852;BME280;24605;50.092;9.182;2023-03-23T04:41:54;97038.69;;;11.19;100.00
38852;BME280;24605;50.092;9.182;2023-03-23T04:44:20;97045.09;;;11.09;100.00
38852;BME280;24605;50.092;9.182;2023-03-23T04:46:46;97033.44;;;11.19;100.00
38852;BME280;24605;50.092;9.182;2023-03-23T04:49:16;97035.03;;;11.13;100.00
38852;BME280;24605;50.092;9.182;2023-03-23T04:51:46;97045.19;;;11.29;100.00
38852;BME280;24605;50.092;9.182;2023-03-23T04:54:13;97038.53;;;11.27;100.00
38852;BME280;24605;50.092;9.182;2023-03-23T04:56:39;97039.34;;;11.34;100.00
38852;BME280;24605;50.092;9.182;2023-03-23T04:59:06;97043.59;;;11.35;100.00
38852;BME280;24605;50.092;9.182;2023-03-23T05:01:33;97040.97;;;11.35;100.00
38852;BME280;24605;50.092;9.182;2023-03-23T05:04:02;97044.41;;;11.36;100.00
38852;BME280;24605;50.092;9.182;2023-03-23T05:06:30;97046.03;;;11.43;100.00
38852;BME280;24605;50.092;9.182;2023-03-23T05:08:56;97053.94;;;11.50;100.00
38852;BME280;24605;50.092;9.182;2023-03-23T05:11:22;97054.94;;;11.49;100.00
38852;BME280;24605;50.092;9.182;2023-03-23T05:13:50;97056.72;;;11.42;100.00
38852;BME280;24605;50.092;9.182;2023-03-23T05:16:16;97072.88;;;11.39;100.00
38852;BME280;24605;50.092;9.182;2023-03-23T05:18:43;97066.00;;;11.38;100.00
38852;BME280;24605;50.092;9.182;2023-03-23T05:21:11;97061.94;;;11.28;100.00
38852;BME280;24605;50.092;9.182;2023-03-23T05:23:40;97071.06;;;11.39;100.00
38852;BME280;24605;50.092;9.182;2023-03-23T05:26:07;97073.47;;;11.34;100.00
38852;BME280;24605;50.092;9.182;2023-03-23T05:28:34;97060.97;;;11.36;100.00
38852;BME280;24605;50.092;9.182;2023-03-23T05:31:01;97076.09;;;11.34;100.00
38852;BME280;24605;50.092;9.182;2023-03-23T05:33:28;97074.50;;;11.40;100.00
38852;BME280;24605;50.092;9.182;2023-03-23T05:35:54;97080.50;;;11.34;100.00
38852;BME280;24605;50.092;9.182;2023-03-23T05:38:21;97086.34;;;11.29;100.00
38852;BME280;24605;50.092;9.182;2023-03-23T05:40:49;97077.41;;;11.17;100.00
38852;BME280;24605;50.092;9.182;2023-03-23T05:43:15;97079.41;;;11.15;100.00
38852;BME280;24605;50.092;9.182;2023-03-23T05:45:42;97086.19;;;11.02;100.00
38852;BME280;24605;50.092;9.182;2023-03-23T05:48:08;97081.50;;;10.91;100.00
38852;BME280;24605;50.092;9.182;2023-03-23T05:50:35;97082.09;;;10.86;100.00
38852;BME280;24605;50.092;9.182;2023-03-23T05:53:01;97087.34;;;10.86;100.00
38852;BME280;24605;50.092;9.182;2023-03-23T05:55:29;97073.59;;;10.84;100.00
38852;BME280;24605;50.092;9.182;2023-03-23T05:57:58;97076.28;;;10.91;100.00
38852;BME280;24605;50.092;9.182;2023-03-23T06:00:24;97075.28;;;10.92;100.00
38852;BME280;24605;50.092;9.182;2023-03-23T06:02:54;97077.31;;;10.96;100.00
38852;BME280;24605;50.092;9.182;2023-03-23T06:05:21;97096.53;;;11.04;100.00
38852;BME280;24605;50.092;9.182;2023-03-23T06:07:49;97075.69;;;10.95;100.00
38852;BME280;24605;50.092;9.182;2023-03-23T06:10:15;97091.31;;;11.10;100.00
38852;BME280;24605;50.092;9.182;2023-03-23T06:12:41;97092.13;;;11.11;100.00
38852;BME280;24605;50.092;9.182;2023-03-23T06:15:10;97086.91;;;11.18;100.00
38852;BME280;24605;50.092;9.182;2023-03-23T06:17:37;96924.09;;;10.00;100.00
38852;BME280;24605;50.092;9.182;2023-03-23T06:20:06;97105.81;;;11.06;100.00
38852;BME280;24605;50.092;9.182;2023-03-23T06:22:35;97103.19;;;11.06;100.00
38852;BME280;24605;50.092;9.182;2023-03-23T06:25:06;97105.81;;;11.06;100.00
38852;BME280;24605;50.092;9.182;2023-03-23T06:27:33;97106.59;;;11.07;100.00
38852;BME280;24605;50.092;9.182;2023-03-23T06:30:00;97109.22;;;11.07;100.00
38852;BME280;24605;50.092;9.182;2023-03-23T06:32:30;97110.84;;;11.01;100.00
38852;BME280;24605;50.092;9.182;2023-03-23T06:34:57;97109.59;;;10.97;100.00
38852;BME280;24605;50.092;9.182;2023-03-23T06:37:24;97105.34;;;10.96;100.00
38852;BME280;24605;50.092;9.182;2023-03-23T06:39:51;97102.09;;;10.94;100.00
38852;BME280;24605;50.092;9.182;2023-03-23T06:42:18;97114.34;;;10.87;100.00
38852;BME280;24605;50.092;9.182;2023-03-23T06:44:44;97105.88;;;10.85;100.00
38852;BME280;24605;50.092;9.182;2023-03-23T06:47:11;97113.94;;;10.83;100.00
38852;BME280;24605;50.092;9.182;2023-03-23T06:49:39;97100.53;;;10.71;100.00
38852;BME280;24605;50.092;9.182;2023-03-23T06:52:05;97116.47;;;10.70;100.00
38852;BME280;24605;50.092;9.182;2023-03-23T06:54:32;97116.28;;;10.71;100.00
38852;BME280;24605;50.092;9.182;2023-03-23T06:59:30;97124.91;;;10.65;100.00
38852;BME280;24605;50.092;9.182;2023-03-23T07:01:57;97120.22;;;10.60;100.00
38852;BME280;24605;50.092;9.182;2023-03-23T07:04:23;97119.66;;;10.65;100.00
38852;BME280;24605;50.092;9.182;2023-03-23T07:06:50;97127.88;;;10.62;100.00
38852;BME280;24605;50.092;9.182;2023-03-23T07:09:16;97116.91;;;10.52;100.00
38852;BME280;24605;50.092;9.182;2023-03-23T07:11:43;97109.09;;;10.37;100.00
38852;BME280;24605;50.092;9.182;2023-03-23T07:14:12;97123.41;;;10.56;100.00
38852;BME280;24605;50.092;9.182;2023-03-23T07:16:41;97126.03;;;10.56;100.00
38852;BME280;24605;50.092;9.182;2023-03-23T07:19:07;97129.38;;;10.49;100.00
38852;BME280;24605;50.092;9.182;2023-03-23T07:21:34;97136.75;;;10.61;100.00
38852;BME280;24605;50.092;9.182;2023-03-23T07:24:00;97133.41;;;10.74;100.00
38852;BME280;24605;50.092;9.182;2023-03-23T07:26:27;97129.59;;;10.76;100.00
38852;BME280;24605;50.092;9.182;2023-03-23T07:28:53;97131.47;;;10.82;100.00
38852;BME280;24605;50.092;9.182;2023-03-23T07:31:20;97142.06;;;10.68;100.00
38852;BME280;24605;50.092;9.182;2023-03-23T07:33:48;97148.50;;;10.65;100.00
38852;BME280;24605;50.092;9.182;2023-03-23T07:36:15;97149.72;;;10.69;100.00
38852;BME280;24605;50.092;9.182;2023-03-23T07:38:41;97157.28;;;10.57;100.00
38852;BME280;24605;50.092;9.182;2023-03-23T07:41:09;97150.69;;;10.61;100.00
38852;BME280;24605;50.092;9.182;2023-03-23T07:43:35;97141.38;;;10.59;100.00
38852;BME280;24605;50.092;9.182;2023-03-23T07:46:02;97134.13;;;10.61;100.00
38852;BME280;24605;50.092;9.182;2023-03-23T07:48:28;97133.63;;;10.72;100.00
38852;BME280;24605;50.092;9.182;2023-03-23T07:50:58;97147.34;;;10.74;100.00
38852;BME280;24605;50.092;9.182;2023-03-23T07:53:24;97148.50;;;10.65;100.00
38852;BME280;24605;50.092;9.182;2023-03-23T07:55:51;97162.81;;;10.69;100.00
38852;BME280;24605;50.092;9.182;2023-03-23T07:58:18;97157.84;;;10.74;100.00
38852;BME280;24605;50.092;9.182;2023-03-23T08:00:46;97169.97;;;10.75;100.00
38852;BME280;24605;50.092;9.182;2023-03-23T08:03:14;97178.25;;;10.79;100.00
38852;BME280;24605;50.092;9.182;2023-03-23T08:05:40;97171.19;;;10.79;100.00
38852;BME280;24605;50.092;9.182;2023-03-23T08:08:09;97165.59;;;10.89;100.00
38852;BME280;24605;50.092;9.182;2023-03-23T08:10:36;97167.19;;;10.84;100.00
38852;BME280;24605;50.092;9.182;2023-03-23T08:13:03;97159.97;;;10.92;100.00
38852;BME280;24605;50.092;9.182;2023-03-23T08:15:31;97145.97;;;10.78;100.00
38852;BME280;24605;50.092;9.182;2023-03-23T08:17:59;97156.25;;;10.80;100.00
38852;BME280;24605;50.092;9.182;2023-03-23T08:20:26;97159.94;;;10.86;100.00
38852;BME280;24605;50.092;9.182;2023-03-23T08:22:54;97149.63;;;10.84;100.00
38852;BME280;24605;50.092;9.182;2023-03-23T08:25:23;97158.28;;;11.06;100.00
38852;BME280;24605;50.092;9.182;2023-03-23T08:27:51;97162.94;;;11.11;100.00
38852;BME280;24605;50.092;9.182;2023-03-23T08:30:19;97172.59;;;11.04;100.00
38852;BME280;24605;50.092;9.182;2023-03-23T08:32:47;97178.91;;;10.88;100.00
38852;BME280;24605;50.092;9.182;2023-03-23T08:35:15;97179.28;;;10.85;100.00
38852;BME280;24605;50.092;9.182;2023-03-23T08:37:42;97185.09;;;10.80;100.00
38852;BME280;24605;50.092;9.182;2023-03-23T08:40:10;97180.81;;;10.72;100.00
38852;BME280;24605;50.092;9.182;2023-03-23T08:42:39;97185.84;;;10.74;100.00
38852;BME280;24605;50.092;9.182;2023-03-23T08:45:07;97173.84;;;10.58;100.00
38852;BME280;24605;50.092;9.182;2023-03-23T08:47:35;97185.19;;;10.65;100.00
38852;BME280;24605;50.092;9.182;2023-03-23T08:50:02;97198.03;;;10.81;100.00
38852;BME280;24605;50.092;9.182;2023-03-23T08:52:29;97196.53;;;10.72;100.00
38852;BME280;24605;50.092;9.182;2023-03-23T08:54:55;97186.25;;;10.71;100.00
38852;BME280;24605;50.092;9.182;2023-03-23T08:57:23;97191.94;;;10.74;100.00
38852;BME280;24605;50.092;9.182;2023-03-23T08:59:51;97196.22;;;10.82;100.00
38852;BME280;24605;50.092;9.182;2023-03-23T09:02:19;97205.91;;;10.81;100.00
38852;BME280;24605;50.092;9.182;2023-03-23T09:04:46;97204.34;;;10.87;100.00
38852;BME280;24605;50.092;9.182;2023-03-23T09:07:14;97203.50;;;10.87;100.00
38852;BME280;24605;50.092;9.182;2023-03-23T09:09:41;97202.72;;;10.86;100.00
38852;BME280;24605;50.092;9.182;2023-03-23T09:12:08;97199.25;;;10.86;100.00
38852;BME280;24605;50.092;9.182;2023-03-23T09:14:35;97205.19;;;10.94;100.00
38852;BME280;24605;50.092;9.182;2023-03-23T09:17:04;97210.53;;;11.08;100.00
38852;BME280;24605;50.092;9.182;2023-03-23T09:19:32;97197.97;;;11.03;100.00
38852;BME280;24605;50.092;9.182;2023-03-23T09:22:00;97200.88;;;11.15;100.00
38852;BME280;24605;50.092;9.182;2023-03-23T09:24:26;97207.44;;;11.26;100.00
38852;BME280;24605;50.092;9.182;2023-03-23T09:26:53;97197.53;;;11.21;100.00
38852;BME280;24605;50.092;9.182;2023-03-23T09:29:20;97192.44;;;11.20;100.00
38852;BME280;24605;50.092;9.182;2023-03-23T09:31:47;97179.31;;;11.13;100.00
38852;BME280;24605;50.092;9.182;2023-03-23T09:34:15;97193.06;;;11.22;100.00
38852;BME280;24605;50.092;9.182;2023-03-23T09:36:42;97185.03;;;11.23;100.00
38852;BME280;24605;50.092;9.182;2023-03-23T09:39:09;97200.63;;;11.32;100.00
38852;BME280;24605;50.092;9.182;2023-03-23T09:41:58;97207.44;;;11.26;100.00
38852;BME280;24605;50.092;9.182;2023-03-23T09:44:31;97213.53;;;11.33;100.00
38852;BME280;24605;50.092;9.182;2023-03-23T09:47:06;97216.38;;;11.32;100.00
38852;BME280;24605;50.092;9.182;2023-03-23T09:49:39;97218.50;;;11.50;100.00
38852;BME280;24605;50.092;9.182;2023-03-23T09:52:13;97226.78;;;11.53;100.00
38852;BME280;24605;50.092;9.182;2023-03-23T09:54:42;97224.56;;;11.50;100.00
38852;BME280;24605;50.092;9.182;2023-03-23T09:57:12;97217.91;;;11.54;100.00
38852;BME280;24605;50.092;9.182;2023-03-23T09:59:46;97213.69;;;11.60;100.00
38852;BME280;24605;50.092;9.182;2023-03-23T10:02:15;97217.75;;;11.63;100.00
38852;BME280;24605;50.092;9.182;2023-03-23T10:04:46;97224.41;;;11.65;100.00
38852;BME280;24605;50.092;9.182;2023-03-23T10:07:14;97213.59;;;11.75;100.00
38852;BME280;24605;50.092;9.182;2023-03-23T10:09:42;97200.09;;;11.85;100.00
38852;BME280;24605;50.092;9.182;2023-03-23T10:12:19;97227.38;;;12.32;100.00
38852;BME280;24605;50.092;9.182;2023-03-23T10:14:57;97232.44;;;12.47;100.00
38852;BME280;24605;50.092;9.182;2023-03-23T10:17:28;97226.44;;;12.60;100.00
38852;BME280;24605;50.092;9.182;2023-03-23T10:20:09;97226.81;;;12.50;100.00
38852;BME280;24605;50.092;9.182;2023-03-23T10:22:45;97230.03;;;12.46;100.00
38852;BME280;24605;50.092;9.182;2023-03-23T10:25:15;97215.25;;;12.45;100.00
38852;BME280;24605;50.092;9.182;2023-03-23T10:27:46;97220.13;;;12.48;100.00
38852;BME280;24605;50.092;9.182;2023-03-23T10:30:20;97216.84;;;12.26;100.00
38852;BME280;24605;50.092;9.182;2023-03-23T10:32:52;97232.19;;;12.22;100.00
38852;BME280;24605;50.092;9.182;2023-03-23T10:35:25;97226.97;;;12.29;100.00
38852;BME280;24605;50.092;9.182;2023-03-23T10:37:56;97231.41;;;12.28;100.00
38852;BME280;24605;50.092;9.182;2023-03-23T10:40:31;97217.78;;;12.04;100.00
38852;BME280;24605;50.092;9.182;2023-03-23T10:42:58;97237.38;;;12.09;100.00
38852;BME280;24605;50.092;9.182;2023-03-23T10:45:26;97223.06;;;12.11;100.00
38852;BME280;24605;50.092;9.182;2023-03-23T10:47:57;97246.28;;;12.07;100.00
38852;BME280;24605;50.092;9.182;2023-03-23T10:50:30;97248.72;;;12.09;100.00
38852;BME280;24605;50.092;9.182;2023-03-23T10:52:58;97244.75;;;12.27;100.00
38852;BME280;24605;50.092;9.182;2023-03-23T10:55:36;97233.34;;;12.06;100.00
38852;BME280;24605;50.092;9.182;2023-03-23T10:58:05;97245.06;;;12.03;100.00
38852;BME280;24605;50.092;9.182;2023-03-23T11:00:33;97255.94;;;12.00;100.00
38852;BME280;24605;50.092;9.182;2023-03-23T11:03:04;97248.19;;;11.92;100.00
38852;BME280;24605;50.092;9.182;2023-03-23T11:05:40;97255.44;;;11.83;100.00
38852;BME280;24605;50.092;9.182;2023-03-23T11:08:12;97223.94;;;11.55;100.00
38852;BME280;24605;50.092;9.182;2023-03-23T11:10:41;97253.94;;;11.67;100.00
38852;BME280;24605;50.092;9.182;2023-03-23T11:13:12;97242.72;;;11.52;100.00
38852;BME280;24605;50.092;9.182;2023-03-23T11:15:41;97256.28;;;11.55;100.00
38852;BME280;24605;50.092;9.182;2023-03-23T11:18:11;97254.94;;;11.66;100.00
38852;BME280;24605;50.092;9.182;2023-03-23T11:20:41;97252.72;;;11.98;100.00
38852;BME280;24605;50.092;9.182;2023-03-23T11:23:11;97258.06;;;12.18;100.00
38852;BME280;24605;50.092;9.182;2023-03-23T11:25:55;97210.69;;;12.05;100.00
38852;BME280;24605;50.092;9.182;2023-03-23T11:28:27;97253.28;;;12.42;100.00
38852;BME280;24605;50.092;9.182;2023-03-23T11:30:55;97251.03;;;12.32;100.00
38852;BME280;24605;50.092;9.182;2023-03-23T11:33:22;97238.94;;;12.51;100.00
38852;BME280;24605;50.092;9.182;2023-03-23T11:35:53;97250.69;;;12.62;100.00
38852;BME280;24605;50.092;9.182;2023-03-23T11:38:22;97242.22;;;12.74;100.00
38852;BME280;24605;50.092;9.182;2023-03-23T11:40:53;97249.72;;;12.77;100.00
38852;BME280;24605;50.092;9.182;2023-03-23T11:43:21;97251.56;;;13.10;100.00
38852;BME280;24605;50.092;9.182;2023-03-23T11:45:56;97255.78;;;12.84;100.00
38852;BME280;24605;50.092;9.182;2023-03-23T11:48:28;97260.19;;;12.50;100.00
38852;BME280;24605;50.092;9.182;2023-03-23T11:51:01;97249.25;;;12.46;100.00
38852;BME280;24605;50.092;9.182;2023-03-23T11:53:35;97252.13;;;12.58;100.00
38852;BME280;24605;50.092;9.182;2023-03-23T11:56:13;97256.38;;;12.59;100.00
38852;BME280;24605;50.092;9.182;2023-03-23T11:58:42;97250.31;;;12.85;100.00
38852;BME280;24605;50.092;9.182;2023-03-23T12:01:15;97246.50;;;13.15;100.00
38852;BME280;24605;50.092;9.182;2023-03-23T12:03:59;97241.06;;;13.43;100.00
38852;BME280;24605;50.092;9.182;2023-03-23T12:06:36;97241.19;;;13.69;100.00
38852;BME280;24605;50.092;9.182;2023-03-23T12:09:14;97221.97;;;13.61;100.00
38852;BME280;24605;50.092;9.182;2023-03-23T12:11:51;97239.63;;;13.34;100.00
38852;BME280;24605;50.092;9.182;2023-03-23T12:14:24;97237.56;;;13.36;100.00
38852;BME280;24605;50.092;9.182;2023-03-23T12:17:02;97219.75;;;13.05;100.00
38852;BME280;24605;50.092;9.182;2023-03-23T12:19:42;97241.25;;;13.08;100.00
38852;BME280;24605;50.092;9.182;2023-03-23T12:22:24;97182.72;;;12.66;100.00
38852;BME280;24605;50.092;9.182;2023-03-23T12:24:59;97228.69;;;13.04;100.00
38852;BME280;24605;50.092;9.182;2023-03-23T12:27:36;97231.94;;;12.99;100.00
38852;BME280;24605;50.092;9.182;2023-03-23T12:30:16;97227.88;;;12.90;100.00
38852;BME280;24605;50.092;9.182;2023-03-23T12:32:54;97218.53;;;12.74;100.00
38852;BME280;24605;50.092;9.182;2023-03-23T12:35:36;97218.53;;;12.74;100.00
38852;BME280;24605;50.092;9.182;2023-03-23T12:38:20;97219.31;;;12.54;100.00
38852;BME280;24605;50.092;9.182;2023-03-23T12:41:11;97217.28;;;12.49;100.00
38852;BME280;24605;50.092;9.182;2023-03-23T12:43:50;97201.94;;;12.60;100.00
38852;BME280;24605;50.092;9.182;2023-03-23T12:47:01;97209.63;;;12.54;100.00
38852;BME280;24605;50.092;9.182;2023-03-23T12:49:34;97210.03;;;12.51;100.00
38852;BME280;24605;50.092;9.182;2023-03-23T12:52:06;97205.16;;;12.55;100.00
38852;BME280;24605;50.092;9.182;2023-03-23T12:54:41;97203.97;;;12.64;100.00
38852;BME280;24605;50.092;9.182;2023-03-23T12:57:16;97193.25;;;12.66;100.00
38852;BME280;24605;50.092;9.182;2023-03-23T12:59:50;97194.06;;;12.80;100.00
38852;BME280;24605;50.092;9.182;2023-03-23T13:02:23;97195.91;;;12.86;100.00
38852;BME280;24605;50.092;9.182;2023-03-23T13:04:55;97183.53;;;12.80;100.00
38852;BME280;24605;50.092;9.182;2023-03-23T13:07:28;97169.59;;;13.13;100.00
38852;BME280;24605;50.092;9.182;2023-03-23T13:10:03;97168.38;;;13.09;100.00
38852;BME280;24605;50.092;9.182;2023-03-23T13:12:32;97154.97;;;13.44;100.00